Merced, CA (95341)

8:01 PM PDT on July 27, 2016 (GMT -0700)
North Merced | | Change Station

Elev 174 ft 37.34 °N, 120.48 °W | Updated 1 second ago

Clear
Clear
94.9 °F
Feels Like 95 °F
N
1.6
Wind Variable Wind from WNW
Gusts 1.8 mph

Today
High -- | Low -- °F
--% Chance of Precip.
Yesterday
High -- | Low -- °F
Precip. -- in
Pressure 29.79 in
Visibility 8.0 miles
Clouds Clear
Heat Index 95 °F
Dew Point 60 °F
Humidity 31%
Rainfall 0.00 in
Snow Depth Not available.
6:02 AM 8:13 PM
Last Quarter, 37% visible
METAR KMCE 280253Z AUTO 32007KT 8SM CLR 35/10 A2979 RMK AO2 SLP087 T03500100 53004 TSNO
Pressure 29.79 in
Visibility 8.0 miles
Clouds Clear
Heat Index 95 °F
Dew Point 60 °F
Humidity 31%
Rainfall 0.00 in
Snow Depth Not available.
6:02 AM 8:13 PM
Last Quarter, 37% visible
METAR KMCE 280253Z AUTO 32007KT 8SM CLR 35/10 A2979 RMK AO2 SLP087 T03500100 53004 TSNO

10-Day Weather Forecast

Almanac

Astronomy

Jul. 27, 2016 Rise Set
Actual Time
Civil Twilight
Nautical Twilight
Astronomical Twilight
Moon
Length of Visible Light
Length of Day
Tomorrow will be .
, % of the Moon is Illuminated

Today's Extremes

State Highs State Lows

Community

WunderPhotos

Upload Photos

1,928,028 photos uploaded!

WunderBlog® & News

Nearby

Air Quality

  Air Quality AQ Index Pollutant
Not available.

Snow Depth

Station Depth Elevation

Earthquake Activity

City Distance Mag. Time & Date
Minimum magnitude displayed is 2.5.

Coastal Water Temperatures

Place Temperature

Stations

Nearby Weather Stations

Station Location Temp. Windchill Dew Point Humidity Wind Precip. Elev Updated Type
                   

Watches & Warnings

There are currently no watches in effect.